createdAt,value
2023-02-20T00:02:23.422Z,6.32
2023-02-20T00:04:50.118Z,6.40
2023-02-20T00:07:16.792Z,6.40
2023-02-20T00:09:43.361Z,6.51
2023-02-20T00:12:12.897Z,6.38
2023-02-20T00:14:39.507Z,6.43
2023-02-20T00:17:06.147Z,6.52
2023-02-20T00:19:32.675Z,6.55
2023-02-20T00:21:59.384Z,6.59
2023-02-20T00:24:25.918Z,6.60
2023-02-20T00:26:54.683Z,6.62
2023-02-20T00:29:22.732Z,6.71
2023-02-20T00:31:55.054Z,6.74
2023-02-20T00:34:25.061Z,6.64
2023-02-20T00:36:51.641Z,6.76
2023-02-20T00:39:20.466Z,6.80
2023-02-20T00:41:47.183Z,6.88
2023-02-20T00:44:14.900Z,6.90
2023-02-20T00:46:41.608Z,6.90
2023-02-20T00:49:08.277Z,6.85
2023-02-20T00:51:47.388Z,6.97
2023-02-20T00:54:14.154Z,7.00
2023-02-20T00:56:41.074Z,7.02
2023-02-20T00:59:07.673Z,7.12
2023-02-20T01:01:34.300Z,7.24
2023-02-20T01:04:00.930Z,7.15
2023-02-20T01:06:27.508Z,7.07
2023-02-20T01:08:54.129Z,7.11
2023-02-20T01:11:20.848Z,7.13
2023-02-20T01:13:47.431Z,7.23
2023-02-20T01:16:14.270Z,7.36
2023-02-20T01:18:43.858Z,7.40
2023-02-20T01:21:10.484Z,7.40
2023-02-20T01:23:39.516Z,7.44
2023-02-20T01:26:06.096Z,7.20
2023-02-20T01:28:32.703Z,7.34
2023-02-20T01:30:59.340Z,7.38
2023-02-20T01:33:26.670Z,7.44
2023-02-20T01:35:53.211Z,7.51
2023-02-20T01:38:21.527Z,7.29
2023-02-20T01:40:51.656Z,7.41
2023-02-20T01:43:18.556Z,7.44
2023-02-20T01:45:45.332Z,7.37
2023-02-20T01:48:22.578Z,7.33
2023-02-20T01:50:52.005Z,7.43
2023-02-20T01:53:20.663Z,7.49
2023-02-20T01:55:51.437Z,7.44
2023-02-20T01:58:21.945Z,7.35
2023-02-20T02:00:49.945Z,7.30
2023-02-20T02:03:22.350Z,7.46
2023-02-20T02:05:52.064Z,7.52
2023-02-20T02:08:19.905Z,7.60
2023-02-20T02:10:46.507Z,7.39
2023-02-20T02:13:13.040Z,7.44
2023-02-20T02:15:39.849Z,7.47
2023-02-20T02:18:20.213Z,7.58
2023-02-20T02:20:59.062Z,7.46
2023-02-20T02:23:28.729Z,7.44
2023-02-20T02:25:57.259Z,7.44
2023-02-20T02:28:49.688Z,7.45
2023-02-20T02:31:28.780Z,7.49
2023-02-20T02:34:18.237Z,7.40
2023-02-20T02:37:20.580Z,7.45
2023-02-20T02:39:58.718Z,7.37
2023-02-20T02:42:42.183Z,7.49
2023-02-20T02:45:22.934Z,7.42
2023-02-20T02:47:49.514Z,7.49
2023-02-20T02:50:22.544Z,7.46
2023-02-20T02:52:50.717Z,7.43
2023-02-20T02:55:24.586Z,7.59
2023-02-20T02:57:51.416Z,7.61
2023-02-20T03:00:20.941Z,7.57
2023-02-20T03:03:17.193Z,7.51
2023-02-20T03:05:47.887Z,7.61
2023-02-20T03:08:31.441Z,7.73
2023-02-20T03:11:01.773Z,7.47
2023-02-20T03:13:49.562Z,7.45
2023-02-20T03:16:19.386Z,7.56
2023-02-20T03:18:46.666Z,7.52
2023-02-20T03:21:17.046Z,7.56
2023-02-20T03:23:46.301Z,7.48
2023-02-20T03:26:22.474Z,7.51
2023-02-20T03:28:58.869Z,7.71
2023-02-20T03:31:37.381Z,7.56
2023-02-20T03:34:28.880Z,7.65
2023-02-20T03:37:40.521Z,7.51
2023-02-20T03:40:30.225Z,7.68
2023-02-20T03:43:20.821Z,7.56
2023-02-20T03:45:48.270Z,7.64
2023-02-20T03:48:37.419Z,7.61
2023-02-20T03:51:04.754Z,7.66
2023-02-20T03:53:44.079Z,7.67
2023-02-20T03:56:13.593Z,7.64
2023-02-20T03:58:46.035Z,7.73
2023-02-20T04:01:15.590Z,7.82
2023-02-20T04:03:44.205Z,7.64
2023-02-20T04:06:12.304Z,7.62
2023-02-20T04:08:59.324Z,7.80
2023-02-20T04:11:53.186Z,7.78
2023-02-20T04:14:21.585Z,7.96
2023-02-20T04:16:51.946Z,7.87
2023-02-20T04:19:18.917Z,7.90
2023-02-20T04:21:55.383Z,7.87
2023-02-20T04:24:31.385Z,7.76
2023-02-20T04:26:58.902Z,7.74
2023-02-20T04:29:25.897Z,7.93
2023-02-20T04:31:55.547Z,7.79
2023-02-20T04:34:24.748Z,7.87
2023-02-20T04:36:55.316Z,7.75
2023-02-20T04:39:22.323Z,7.94
2023-02-20T04:41:49.184Z,7.86
2023-02-20T04:44:31.320Z,7.77
2023-02-20T04:46:59.201Z,7.76
2023-02-20T04:49:26.202Z,7.84
2023-02-20T04:51:55.552Z,7.79
2023-02-20T04:54:22.451Z,7.69
2023-02-20T04:56:49.526Z,7.79
2023-02-20T04:59:16.364Z,7.65
2023-02-20T05:01:47.992Z,7.85
2023-02-20T05:04:15.801Z,7.82
2023-02-20T05:06:43.568Z,7.75
2023-02-20T05:09:11.048Z,7.75
2023-02-20T05:11:38.396Z,7.91
2023-02-20T05:14:05.572Z,7.95
2023-02-20T05:16:32.306Z,8.07
2023-02-20T05:19:00.838Z,7.82
2023-02-20T05:21:46.931Z,7.90
2023-02-20T05:24:13.624Z,7.97
2023-02-20T05:26:40.515Z,7.80
2023-02-20T05:29:09.901Z,7.92
2023-02-20T05:31:36.585Z,7.86
2023-02-20T05:34:03.452Z,7.75
2023-02-20T05:36:30.028Z,7.81
2023-02-20T05:38:56.643Z,7.88
2023-02-20T05:41:23.174Z,7.85
2023-02-20T05:43:49.792Z,7.74
2023-02-20T05:46:16.912Z,7.76
2023-02-20T05:48:43.650Z,7.74
2023-02-20T05:51:20.845Z,7.77
2023-02-20T05:53:47.489Z,7.77
2023-02-20T05:56:14.806Z,7.91
2023-02-20T05:58:44.828Z,7.93
2023-02-20T06:01:22.321Z,8.02
2023-02-20T06:03:49.162Z,7.93
2023-02-20T06:06:16.328Z,7.98
2023-02-20T06:08:42.929Z,7.81
2023-02-20T06:11:10.993Z,7.91
2023-02-20T06:13:39.750Z,7.94
2023-02-20T06:16:06.479Z,7.92
2023-02-20T06:18:33.280Z,7.91
2023-02-20T06:20:59.877Z,7.86
2023-02-20T06:23:26.470Z,7.81
2023-02-20T06:25:53.077Z,7.96
2023-02-20T06:28:21.465Z,7.88
2023-02-20T06:30:48.025Z,8.01
2023-02-20T06:33:14.618Z,7.84
2023-02-20T06:35:41.209Z,8.02
2023-02-20T06:38:07.853Z,8.06
2023-02-20T06:40:34.500Z,8.09
2023-02-20T06:43:01.571Z,8.02
2023-02-20T06:45:28.154Z,8.08
2023-02-20T06:47:54.794Z,8.03
2023-02-20T06:50:21.409Z,8.03
2023-02-20T06:52:48.014Z,8.04
2023-02-20T06:55:14.689Z,8.02
2023-02-20T06:57:41.325Z,8.20
2023-02-20T07:00:08.292Z,8.10
2023-02-20T07:02:37.168Z,8.01
2023-02-20T07:05:04.785Z,8.07
2023-02-20T07:07:31.497Z,8.20
2023-02-20T07:10:00.108Z,8.02
2023-02-20T07:12:30.249Z,7.97
2023-02-20T07:14:56.864Z,8.10
2023-02-20T07:17:25.769Z,8.21
2023-02-20T07:19:52.481Z,8.20
2023-02-20T07:22:19.059Z,8.19
2023-02-20T07:24:49.741Z,8.02
2023-02-20T07:27:16.394Z,8.10
2023-02-20T07:29:44.947Z,8.18
2023-02-20T07:32:11.603Z,8.31
2023-02-20T07:34:38.136Z,8.46
2023-02-20T07:37:04.719Z,8.36
2023-02-20T07:39:31.314Z,8.45
2023-02-20T07:41:57.902Z,8.58
2023-02-20T07:44:56.622Z,8.40
2023-02-20T07:47:23.229Z,8.43
2023-02-20T07:49:49.870Z,8.68
2023-02-20T07:52:16.578Z,8.65
2023-02-20T07:54:43.153Z,8.66
2023-02-20T07:57:09.858Z,8.78
2023-02-20T07:59:36.422Z,8.88
2023-02-20T08:02:03.012Z,8.57
2023-02-20T08:04:29.588Z,8.73
2023-02-20T08:06:56.271Z,8.71
2023-02-20T08:09:22.926Z,8.82
2023-02-20T08:11:49.550Z,8.84
2023-02-20T08:14:16.638Z,8.94
2023-02-20T08:16:43.232Z,9.00
2023-02-20T08:19:09.906Z,9.13
2023-02-20T08:21:36.514Z,9.01
2023-02-20T08:24:03.100Z,9.28
2023-02-20T08:26:29.740Z,9.02
2023-02-20T08:28:56.460Z,9.08
2023-02-20T08:31:32.042Z,9.08
2023-02-20T08:33:59.437Z,9.13
2023-02-20T08:36:25.960Z,9.55
2023-02-20T08:38:55.880Z,9.41
2023-02-20T08:41:22.885Z,9.58
2023-02-20T08:43:50.295Z,9.55
2023-02-20T08:46:17.129Z,9.82
2023-02-20T08:48:44.120Z,9.75
2023-02-20T08:51:10.722Z,9.84
2023-02-20T08:53:38.432Z,10.10
2023-02-20T08:56:05.754Z,10.05
2023-02-20T08:58:32.373Z,10.29
2023-02-20T09:00:59.025Z,10.35
2023-02-20T09:03:27.301Z,10.19
2023-02-20T09:05:53.903Z,10.47
2023-02-20T09:08:20.615Z,10.57
2023-02-20T09:10:47.314Z,10.28
2023-02-20T09:13:14.320Z,10.23
2023-02-20T09:15:40.923Z,10.44
2023-02-20T09:18:10.033Z,10.43
2023-02-20T09:20:37.620Z,10.43
2023-02-20T09:23:04.398Z,10.50
2023-02-20T09:25:31.333Z,10.37
2023-02-20T09:27:57.934Z,10.15
2023-02-20T09:30:24.742Z,10.28
2023-02-20T09:32:51.940Z,10.10
2023-02-20T09:35:20.764Z,10.16
2023-02-20T09:37:47.404Z,10.15
2023-02-20T09:40:14.586Z,10.05
2023-02-20T09:43:04.163Z,9.98
2023-02-20T09:45:37.116Z,10.24
2023-02-20T09:48:10.414Z,10.27
2023-02-20T09:50:54.340Z,10.77
2023-02-20T09:53:25.706Z,10.98
2023-02-20T09:55:52.577Z,10.95
2023-02-20T09:58:23.493Z,10.94
2023-02-20T10:00:50.907Z,11.51
2023-02-20T10:03:35.160Z,11.31
2023-02-20T10:06:04.760Z,10.84
2023-02-20T10:08:31.333Z,10.78
2023-02-20T10:11:03.846Z,10.31
2023-02-20T10:13:33.699Z,10.34
2023-02-20T10:16:00.325Z,10.32
2023-02-20T10:18:46.262Z,9.99
2023-02-20T10:21:15.804Z,10.14
2023-02-20T10:23:42.350Z,10.07
2023-02-20T10:26:12.787Z,10.05
2023-02-20T10:28:39.759Z,9.97
2023-02-20T10:31:25.445Z,10.08
2023-02-20T10:33:57.072Z,10.04
2023-02-20T10:36:23.679Z,9.82
2023-02-20T10:38:52.916Z,9.84
2023-02-20T10:41:23.065Z,9.90
2023-02-20T10:44:00.988Z,9.99
2023-02-20T10:46:48.596Z,9.56
2023-02-20T10:49:25.004Z,9.74
2023-02-20T10:51:55.094Z,9.77
2023-02-20T10:54:26.103Z,9.91
2023-02-20T10:56:52.748Z,9.85
2023-02-20T10:59:24.104Z,9.74
2023-02-20T11:01:54.856Z,9.57
2023-02-20T11:04:23.832Z,9.69
2023-02-20T11:06:53.696Z,9.80
2023-02-20T11:09:20.909Z,9.63
2023-02-20T11:11:47.695Z,9.59
2023-02-20T11:14:49.680Z,9.73
2023-02-20T11:17:19.350Z,9.85
2023-02-20T11:19:56.114Z,9.66
2023-02-20T11:22:41.491Z,9.96
2023-02-20T11:25:18.571Z,10.00
2023-02-20T11:27:50.139Z,9.82
2023-02-20T11:30:23.087Z,10.00
2023-02-20T11:32:49.834Z,9.75
2023-02-20T11:35:19.526Z,9.89
2023-02-20T11:37:55.145Z,9.95
2023-02-20T11:40:32.081Z,9.88
2023-02-20T11:43:14.924Z,9.68
2023-02-20T11:45:41.852Z,9.74
2023-02-20T11:48:08.892Z,9.53
2023-02-20T11:50:49.598Z,9.59
2023-02-20T11:53:18.718Z,9.63
2023-02-20T11:55:54.957Z,9.64
2023-02-20T11:58:27.588Z,9.64
2023-02-20T12:00:55.211Z,9.68
2023-02-20T12:03:26.234Z,9.67
2023-02-20T12:05:53.021Z,9.60
2023-02-20T12:08:38.204Z,9.61
2023-02-20T12:11:31.155Z,9.58
2023-02-20T12:13:58.926Z,9.59
2023-02-20T12:16:25.698Z,9.48
2023-02-20T12:19:12.726Z,9.55
2023-02-20T12:21:46.749Z,9.54
2023-02-20T12:24:13.407Z,9.53
2023-02-20T12:27:12.340Z,9.45
2023-02-20T12:29:38.919Z,9.64
2023-02-20T12:32:05.497Z,9.67
2023-02-20T12:34:38.881Z,9.39
2023-02-20T12:37:08.548Z,9.56
2023-02-20T12:39:51.544Z,9.70
2023-02-20T12:42:21.206Z,9.72
2023-02-20T12:44:54.052Z,9.89
2023-02-20T12:47:32.216Z,9.69
2023-02-20T12:50:08.176Z,9.59
2023-02-20T12:52:34.841Z,9.42
2023-02-20T12:55:07.552Z,9.57
2023-02-20T12:57:45.762Z,9.61
2023-02-20T13:00:32.114Z,9.69
2023-02-20T13:03:03.678Z,9.52
2023-02-20T13:05:31.535Z,9.58
2023-02-20T13:08:04.095Z,9.75
2023-02-20T13:10:32.883Z,9.41
2023-02-20T13:13:01.098Z,9.58
2023-02-20T13:15:38.455Z,9.57
2023-02-20T13:18:05.029Z,9.52
2023-02-20T13:20:35.306Z,9.42
2023-02-20T13:23:17.272Z,9.40
2023-02-20T13:25:45.271Z,9.45
2023-02-20T13:28:17.674Z,9.43
2023-02-20T13:30:44.327Z,9.50
2023-02-20T13:33:22.888Z,9.59
2023-02-20T13:35:52.291Z,9.48
2023-02-20T13:38:20.729Z,9.44
2023-02-20T13:40:53.483Z,9.34
2023-02-20T13:43:31.073Z,9.48
2023-02-20T13:46:00.928Z,9.42
2023-02-20T13:48:30.574Z,9.23
2023-02-20T13:51:19.507Z,9.35
2023-02-20T13:53:49.213Z,9.38
2023-02-20T13:56:21.461Z,9.25
2023-02-20T13:58:49.020Z,9.36
2023-02-20T14:01:17.901Z,9.43
2023-02-20T14:03:44.572Z,9.56
2023-02-20T14:06:15.457Z,9.42
2023-02-20T14:08:46.113Z,9.56
2023-02-20T14:11:24.000Z,9.46
2023-02-20T14:13:54.431Z,9.49
2023-02-20T14:16:24.865Z,9.57
2023-02-20T14:18:51.766Z,9.74
2023-02-20T14:21:19.705Z,9.65
2023-02-20T14:23:49.865Z,9.39
2023-02-20T14:26:19.450Z,9.61
2023-02-20T14:28:47.447Z,9.49
2023-02-20T14:31:22.121Z,9.55
2023-02-20T14:33:50.641Z,9.52
2023-02-20T14:36:17.136Z,9.44
2023-02-20T14:38:50.845Z,9.64
2023-02-20T14:41:19.018Z,9.46
2023-02-20T14:43:53.571Z,9.56
2023-02-20T14:46:24.602Z,9.48
2023-02-20T14:49:02.893Z,9.67
2023-02-20T14:51:29.477Z,9.37
2023-02-20T14:54:22.239Z,9.45
2023-02-20T14:56:50.187Z,9.36
2023-02-20T14:59:16.718Z,9.35
2023-02-20T15:01:43.353Z,9.61
2023-02-20T15:04:15.031Z,9.34
2023-02-20T15:06:43.380Z,9.57
2023-02-20T15:09:21.782Z,9.47
2023-02-20T15:11:53.897Z,9.63
2023-02-20T15:14:25.542Z,9.47
2023-02-20T15:17:11.083Z,9.62
2023-02-20T15:19:39.465Z,9.43
2023-02-20T15:22:06.620Z,9.55
2023-02-20T15:24:35.345Z,9.61
2023-02-20T15:27:09.271Z,9.71
2023-02-20T15:29:36.199Z,9.46
2023-02-20T15:32:04.869Z,9.59
2023-02-20T15:34:36.062Z,9.44
2023-02-20T15:37:15.233Z,9.34
2023-02-20T15:39:41.920Z,9.38
2023-02-20T15:42:12.004Z,9.35
2023-02-20T15:44:41.283Z,9.50
2023-02-20T15:47:07.918Z,9.69
2023-02-20T15:49:34.646Z,9.50
2023-02-20T15:52:08.930Z,9.52
2023-02-20T15:54:37.046Z,9.44
2023-02-20T15:57:03.874Z,9.71
2023-02-20T15:59:30.627Z,9.56
2023-02-20T16:01:57.198Z,9.52
2023-02-20T16:04:23.969Z,9.53
2023-02-20T16:06:50.521Z,9.43
2023-02-20T16:09:17.188Z,9.47
2023-02-20T16:11:45.454Z,9.46
2023-02-20T16:14:15.738Z,9.65
2023-02-20T16:16:47.326Z,9.48
2023-02-20T16:19:30.580Z,9.67
2023-02-20T16:22:00.446Z,9.55
2023-02-20T16:24:27.251Z,9.50
2023-02-20T16:26:54.163Z,9.52
2023-02-20T16:29:31.095Z,9.57
2023-02-20T16:32:00.954Z,9.51
2023-02-20T16:34:32.339Z,9.45
2023-02-20T16:36:59.502Z,9.46
2023-02-20T16:39:27.155Z,9.45
2023-02-20T16:41:54.832Z,9.65
2023-02-20T16:44:23.912Z,9.69
2023-02-20T16:46:50.533Z,9.54
2023-02-20T16:49:17.677Z,9.59
2023-02-20T16:52:01.323Z,9.50
2023-02-20T16:54:28.871Z,9.49
2023-02-20T16:56:55.624Z,9.61
2023-02-20T16:59:22.799Z,9.59
2023-02-20T17:01:51.612Z,9.50
2023-02-20T17:04:19.747Z,9.54
2023-02-20T17:06:46.647Z,9.48
2023-02-20T17:09:13.504Z,9.52
2023-02-20T17:11:40.104Z,9.64
2023-02-20T17:14:06.899Z,9.63
2023-02-20T17:16:33.625Z,9.42
2023-02-20T17:19:00.226Z,9.60
2023-02-20T17:21:26.742Z,9.41
2023-02-20T17:23:55.532Z,9.55
2023-02-20T17:26:22.072Z,9.60
2023-02-20T17:28:48.647Z,9.43
2023-02-20T17:31:15.611Z,9.45
2023-02-20T17:33:42.456Z,9.47
2023-02-20T17:36:09.193Z,9.40
2023-02-20T17:38:35.901Z,9.40
2023-02-20T17:41:02.425Z,9.39
2023-02-20T17:43:29.005Z,9.48
2023-02-20T17:45:55.665Z,9.50
2023-02-20T17:48:22.232Z,9.52
2023-02-20T17:50:48.782Z,9.32
2023-02-20T17:53:15.440Z,9.53
2023-02-20T17:55:42.002Z,9.43
2023-02-20T17:58:08.582Z,9.76
2023-02-20T18:00:35.270Z,9.69
2023-02-20T18:03:02.050Z,9.59
2023-02-20T18:05:28.629Z,9.52
2023-02-20T18:07:55.579Z,9.66
2023-02-20T18:10:22.178Z,9.79
2023-02-20T18:13:02.690Z,9.62
2023-02-20T18:15:33.752Z,9.60
2023-02-20T18:18:01.150Z,9.76
2023-02-20T18:20:28.176Z,9.62
2023-02-20T18:22:57.871Z,9.72
2023-02-20T18:25:39.081Z,9.77
2023-02-20T18:28:06.599Z,9.50
2023-02-20T18:30:34.538Z,9.53
2023-02-20T18:33:01.309Z,9.63
2023-02-20T18:35:30.105Z,9.60
2023-02-20T18:37:56.733Z,9.43
2023-02-20T18:40:24.237Z,9.58
2023-02-20T18:42:51.729Z,9.52
2023-02-20T18:45:18.785Z,9.54
2023-02-20T18:47:49.347Z,9.53
2023-02-20T18:50:16.161Z,9.36
2023-02-20T18:52:44.901Z,9.40
2023-02-20T18:55:17.483Z,9.52
2023-02-20T18:57:45.905Z,9.46
2023-02-20T19:00:13.896Z,9.38
2023-02-20T19:02:40.669Z,9.63
2023-02-20T19:05:07.463Z,9.39
2023-02-20T19:07:35.693Z,9.46
2023-02-20T19:10:03.608Z,9.28
2023-02-20T19:12:30.256Z,9.46
2023-02-20T19:14:56.785Z,9.50
2023-02-20T19:17:23.665Z,9.41
2023-02-20T19:19:50.297Z,9.43
2023-02-20T19:22:17.125Z,9.32
2023-02-20T19:24:43.719Z,9.32
2023-02-20T19:27:11.840Z,9.43
2023-02-20T19:29:40.642Z,9.21
2023-02-20T19:32:09.057Z,9.22
2023-02-20T19:34:35.762Z,9.46
2023-02-20T19:37:04.663Z,9.47
2023-02-20T19:39:31.449Z,9.45
2023-02-20T19:41:58.047Z,9.48
2023-02-20T19:44:24.690Z,9.50
2023-02-20T19:46:53.125Z,9.38
2023-02-20T19:49:21.217Z,9.41
2023-02-20T19:51:48.657Z,9.44
2023-02-20T19:54:16.222Z,9.41
2023-02-20T19:56:49.404Z,9.45
2023-02-20T19:59:18.016Z,9.48
2023-02-20T20:01:55.830Z,9.24
2023-02-20T20:04:23.873Z,9.47
2023-02-20T20:06:50.445Z,9.42
2023-02-20T20:09:35.210Z,9.43
2023-02-20T20:12:03.729Z,9.32
2023-02-20T20:14:30.256Z,9.45
2023-02-20T20:16:56.954Z,9.42
2023-02-20T20:19:23.731Z,9.23
2023-02-20T20:21:50.701Z,9.46
2023-02-20T20:24:17.753Z,9.54
2023-02-20T20:26:44.449Z,9.48
2023-02-20T20:29:11.053Z,9.40
2023-02-20T20:31:42.086Z,9.41
2023-02-20T20:34:09.108Z,9.42
2023-02-20T20:36:35.869Z,9.44
2023-02-20T20:39:02.513Z,9.42
2023-02-20T20:41:36.087Z,9.41
2023-02-20T20:44:09.626Z,9.57
2023-02-20T20:46:39.407Z,9.47
2023-02-20T20:49:06.024Z,9.63
2023-02-20T20:51:32.554Z,9.54
2023-02-20T20:53:59.208Z,9.44
2023-02-20T20:56:25.727Z,9.44
2023-02-20T20:58:52.315Z,9.56
2023-02-20T21:01:19.101Z,9.60
2023-02-20T21:03:45.758Z,9.48
2023-02-20T21:06:12.925Z,9.50
2023-02-20T21:08:39.677Z,9.59
2023-02-20T21:11:06.368Z,9.46
2023-02-20T21:13:33.030Z,9.41
2023-02-20T21:15:59.674Z,9.53
2023-02-20T21:18:26.342Z,9.45
2023-02-20T21:20:52.878Z,9.38
2023-02-20T21:23:19.492Z,9.56
2023-02-20T21:25:46.034Z,9.56
2023-02-20T21:28:12.692Z,9.63
2023-02-20T21:30:39.328Z,9.54
2023-02-20T21:33:06.471Z,9.61
2023-02-20T21:35:33.021Z,9.60
2023-02-20T21:37:59.627Z,9.72
2023-02-20T21:40:26.169Z,9.75
2023-02-20T21:43:11.407Z,9.66
2023-02-20T21:45:37.994Z,9.64
2023-02-20T21:48:05.338Z,9.63
2023-02-20T21:50:32.000Z,9.60
2023-02-20T21:52:58.906Z,9.47
2023-02-20T21:55:25.587Z,9.63
2023-02-20T21:57:52.442Z,9.48
2023-02-20T22:00:18.994Z,9.54
2023-02-20T22:02:45.540Z,9.47
2023-02-20T22:05:12.935Z,9.61
2023-02-20T22:07:58.096Z,9.55
2023-02-20T22:10:43.997Z,9.61
2023-02-20T22:13:29.174Z,9.60
2023-02-20T22:16:14.666Z,9.60
2023-02-20T22:18:59.965Z,9.46
2023-02-20T22:21:45.834Z,9.58
2023-02-20T22:24:38.107Z,9.53
2023-02-20T22:27:25.788Z,9.51
2023-02-20T22:30:11.373Z,9.38
2023-02-20T22:32:56.766Z,9.61
2023-02-20T22:35:45.116Z,9.40
2023-02-20T22:38:30.475Z,9.50
2023-02-20T22:41:18.732Z,9.58
2023-02-20T22:44:04.068Z,9.54
2023-02-20T22:46:49.263Z,9.54
2023-02-20T22:49:34.630Z,9.52
2023-02-20T22:52:19.796Z,9.48
2023-02-20T22:55:06.081Z,9.45
2023-02-20T22:57:54.796Z,9.46
2023-02-20T23:00:40.725Z,9.55
2023-02-20T23:03:29.133Z,9.65
2023-02-20T23:06:18.541Z,9.59
2023-02-20T23:09:06.727Z,9.80
2023-02-20T23:11:53.043Z,9.68
2023-02-20T23:14:40.228Z,9.70
2023-02-20T23:17:35.537Z,9.85
2023-02-20T23:20:27.121Z,9.71
2023-02-20T23:23:12.688Z,9.62
2023-02-20T23:25:57.644Z,9.71
2023-02-20T23:28:42.938Z,9.68
2023-02-20T23:31:37.448Z,9.71
2023-02-20T23:34:22.762Z,9.70
2023-02-20T23:37:08.774Z,9.73
2023-02-20T23:39:54.706Z,9.62
2023-02-20T23:42:40.049Z,9.76
2023-02-20T23:45:25.956Z,9.87
2023-02-20T23:48:25.690Z,9.78
2023-02-20T23:51:11.816Z,9.68
2023-02-20T23:53:57.373Z,9.94
2023-02-20T23:56:43.324Z,9.99
2023-02-20T23:59:33.705Z,10.02
